首页
METAR-TAF:

METAR-TAF

机场 :

加里, 印第安纳州, 美国

纬度: 41-37N, 经度: 087-25W, 海拔: 180米

当前天气观测

该预报发布于26分钟前的17:45 UTC
风速3节,风向西南
温度 15°C
湿度 88%
气压 1007 hPa
能見度: 16.1公里
阴天层高于6000英尺

METAR: KGYY 281745Z 23003KT 10SM OVC060 15/13 A2974

时间: 13:11 (18:11 UTC)

预报

该预报发布于26分钟前的17:45 UTC
预报有效从28日的 18点(UTC)到 29日的 18点(UTC)
风速5节,风向
能見度: 6.4公里
散云层高于500英尺
阴天层高于6000英尺
小阵雨, 轻雾
短暂存在
从 28日的 18点(UTC)到 28日的 19点(UTC)
能見度: 4.8公里
多云层高于700英尺
阴天层高于6000英尺, 积雨云.
雷暴, 小雨, 轻雾
从 29日的 0000点(UTC)
风速12节,风向东南,有时为18节阵风
能見度: 10公里
多云层高于1500英尺
短暂存在
从 29日的 02点(UTC)到 29日的 04点(UTC)
风速20节,风向南转西南,有时为35节阵风
能見度: 1.6公里
多云层高于1000英尺
阴天层高于2000英尺, 积雨云.
雷暴, 大雨
从 29日的 0400点(UTC)
风速15节,风向南转西南,有时为25节阵风
能見度: 10公里
散云层高于1500英尺
从 29日的 0900点(UTC)
风速20节,风向西南,有时为32节阵风
能見度: 10公里
多云层高于2000英尺

TAF: KGYY 281745Z 2818/2918 10005KT 4SM -SHRA BR SCT005 OVC060 TEMPO 2818/2819 3SM -TSRA BR BKN007 OVC060CB FM290000 14012G18KT P6SM BKN015 WS020/18045KT TEMPO 2902/2904 21020G35KT 1SM +TSRA BKN010 OVC020CB FM290400 21015G25KT P6SM SCT015 FM290900 22020G32KT P6SM BKN020

超过4000个机场的气象观测和天气预报(METAR&TAF报告)。

可查询的气象台以黄色和红色小点在地图上表示。

将鼠标移到小点上方,可查看气象台名称。

然后点击查看天气观测和预报。

如需切换地图:点击带黑十字的绿色按钮放大地图;点击带横线的绿色按钮缩小地图;或者点击绿色箭头查看邻近地区的地图。


METAR-TAF: